createdAt,value
2023-07-18T00:03:32.230Z,9.52
2023-07-18T00:08:35.918Z,9.45
2023-07-18T00:13:39.523Z,9.85
2023-07-18T00:18:44.642Z,8.95
2023-07-18T00:23:48.216Z,8.85
2023-07-18T00:28:54.714Z,8.13
2023-07-18T00:33:59.862Z,8.70
2023-07-18T00:39:04.948Z,7.93
2023-07-18T00:44:08.469Z,8.30
2023-07-18T00:49:14.484Z,8.55
2023-07-18T00:54:18.986Z,8.57
2023-07-18T00:59:23.861Z,8.30
2023-07-18T01:04:28.916Z,8.13
2023-07-18T01:09:33.428Z,8.57
2023-07-18T01:14:36.968Z,8.60
2023-07-18T01:19:43.105Z,8.60
2023-07-18T01:24:47.992Z,8.85
2023-07-18T01:29:52.892Z,8.88
2023-07-18T01:34:56.474Z,9.30
2023-07-18T01:40:01.544Z,9.88
2023-07-18T01:45:08.614Z,9.70
2023-07-18T01:50:13.241Z,9.35
2023-07-18T01:55:19.175Z,8.98
2023-07-18T02:00:23.311Z,8.82
2023-07-18T02:05:29.330Z,8.77
2023-07-18T02:10:34.390Z,9.95
2023-07-18T02:15:38.125Z,8.63
2023-07-18T02:20:42.100Z,8.55
2023-07-18T02:25:48.503Z,10.23
2023-07-18T02:30:55.237Z,8.77
2023-07-18T02:35:58.824Z,9.10
2023-07-18T02:41:03.856Z,8.70
2023-07-18T02:46:07.995Z,8.18
2023-07-18T02:56:16.978Z,8.20
2023-07-18T03:01:21.299Z,8.55
2023-07-18T03:06:25.624Z,8.52
2023-07-18T03:11:30.770Z,8.30
2023-07-18T03:16:34.991Z,8.15
2023-07-18T03:21:38.924Z,8.75
2023-07-18T03:26:43.883Z,8.20
2023-07-18T03:31:47.825Z,7.75
2023-07-18T03:36:51.556Z,8.10
2023-07-18T03:41:56.479Z,8.50
2023-07-18T03:47:15.065Z,7.80
2023-07-18T03:52:19.902Z,7.82
2023-07-18T03:57:24.979Z,6.90
2023-07-18T04:02:29.023Z,7.28
2023-07-18T04:07:33.287Z,7.20
2023-07-18T04:12:38.337Z,7.35
2023-07-18T04:17:42.138Z,7.93
2023-07-18T04:22:45.923Z,7.30
2023-07-18T04:27:50.942Z,6.88
2023-07-18T04:32:54.523Z,7.65
2023-07-18T04:37:58.181Z,6.93
2023-07-18T04:43:03.451Z,7.07
2023-07-18T04:48:08.165Z,6.90
2023-07-18T04:53:12.407Z,7.18
2023-07-18T04:58:17.430Z,6.82
2023-07-18T05:03:21.292Z,6.60
2023-07-18T05:08:24.869Z,6.90
2023-07-18T05:13:30.298Z,6.68
2023-07-18T05:18:33.849Z,6.35
2023-07-18T05:23:37.713Z,7.50
2023-07-18T05:28:42.749Z,7.07
2023-07-18T05:33:46.330Z,6.60
2023-07-18T05:38:49.982Z,6.28
2023-07-18T05:43:54.996Z,6.68
2023-07-18T05:48:58.616Z,6.70
2023-07-18T05:54:02.242Z,7.25
2023-07-18T05:59:07.981Z,6.57
2023-07-18T06:04:12.645Z,6.55
2023-07-18T06:09:16.705Z,6.10
2023-07-18T06:14:22.113Z,6.72
2023-07-18T06:19:25.679Z,6.53
2023-07-18T06:24:29.367Z,7.40
2023-07-18T06:29:34.629Z,6.43
2023-07-18T06:34:42.534Z,6.22
2023-07-18T06:39:46.435Z,6.82
2023-07-18T06:44:51.367Z,5.85
2023-07-18T06:49:55.001Z,6.43
2023-07-18T06:54:58.629Z,6.50
2023-07-18T07:00:08.203Z,6.40
2023-07-18T07:05:12.293Z,6.23
2023-07-18T07:10:15.928Z,6.60
2023-07-18T07:15:21.514Z,6.82
2023-07-18T07:20:25.882Z,7.15
2023-07-18T07:25:31.317Z,6.50
2023-07-18T07:30:36.526Z,6.85
2023-07-18T07:35:40.155Z,5.90
2023-07-18T07:40:44.129Z,6.18
2023-07-18T07:45:49.145Z,5.93
2023-07-18T07:50:52.737Z,6.07
2023-07-18T07:55:56.914Z,5.90
2023-07-18T08:01:02.891Z,6.18
2023-07-18T08:06:06.545Z,6.05
2023-07-18T08:11:10.051Z,6.00
2023-07-18T08:16:15.063Z,6.63
2023-07-18T08:21:20.851Z,6.22
2023-07-18T08:26:24.721Z,5.80
2023-07-18T08:31:29.851Z,5.88
2023-07-18T08:36:36.986Z,6.20
2023-07-18T08:41:44.607Z,5.90
2023-07-18T08:46:49.873Z,5.30
2023-07-18T08:51:55.015Z,4.75
2023-07-18T08:56:59.174Z,4.25
2023-07-18T09:02:04.329Z,5.30
2023-07-18T09:07:09.367Z,5.20
2023-07-18T09:12:13.085Z,5.15
2023-07-18T09:17:18.199Z,6.07
2023-07-18T09:22:22.455Z,5.38
2023-07-18T09:27:26.034Z,4.82
2023-07-18T09:32:31.988Z,4.68
2023-07-18T09:37:46.996Z,4.75
2023-07-18T09:42:52.522Z,4.90
2023-07-18T09:47:59.896Z,5.15
2023-07-18T09:53:08.183Z,5.35
2023-07-18T09:58:14.549Z,5.70
2023-07-18T10:03:19.796Z,5.18
2023-07-18T10:08:33.601Z,5.07
2023-07-18T10:13:44.164Z,5.43
2023-07-18T10:18:49.890Z,5.53
2023-07-18T10:23:53.773Z,5.60
2023-07-18T10:29:02.334Z,5.60
2023-07-18T10:34:12.265Z,5.32
2023-07-18T10:39:15.830Z,5.35
2023-07-18T10:44:29.897Z,5.00
2023-07-18T10:49:39.236Z,4.68
2023-07-18T10:54:46.449Z,5.20
2023-07-18T10:59:49.966Z,4.68
2023-07-18T11:04:55.804Z,4.90
2023-07-18T11:09:59.304Z,4.90
2023-07-18T11:15:04.622Z,4.50
2023-07-18T11:20:14.040Z,4.43
2023-07-18T11:25:17.729Z,4.15
2023-07-18T11:30:24.184Z,4.63
2023-07-18T11:35:29.719Z,4.22
2023-07-18T11:40:34.762Z,4.05
2023-07-18T11:45:38.957Z,4.90
2023-07-18T11:50:46.383Z,5.20
2023-07-18T11:55:50.307Z,4.45
2023-07-18T12:00:59.442Z,5.10
2023-07-18T12:06:04.892Z,4.60
2023-07-18T12:11:10.514Z,4.38
2023-07-18T12:16:14.091Z,4.15
2023-07-18T12:26:24.876Z,4.20
2023-07-18T12:31:29.497Z,4.38
2023-07-18T12:36:34.544Z,4.10
2023-07-18T12:41:38.137Z,4.07
2023-07-18T12:51:46.642Z,4.87
2023-07-18T12:56:50.356Z,5.68
2023-07-18T13:01:54.029Z,6.28
2023-07-18T13:12:02.398Z,6.13
2023-07-18T13:22:13.555Z,6.87
2023-07-18T13:27:20.142Z,7.60
2023-07-18T13:32:24.537Z,7.22
2023-07-18T13:37:29.554Z,7.10
2023-07-18T13:42:33.169Z,7.25
2023-07-18T13:47:36.884Z,7.57
2023-07-18T13:57:46.039Z,8.35
2023-07-18T14:02:50.877Z,8.35
2023-07-18T14:07:55.988Z,8.57
2023-07-18T14:13:00.009Z,7.97
2023-07-18T14:18:04.413Z,8.38
2023-07-18T14:23:10.207Z,8.40
2023-07-18T14:28:13.856Z,7.85
2023-07-18T14:33:19.011Z,7.40
2023-07-18T14:38:24.771Z,7.47
2023-07-18T14:43:32.291Z,8.10
2023-07-18T14:48:35.992Z,7.30
2023-07-18T14:53:40.962Z,7.57
2023-07-18T14:58:44.875Z,8.00
2023-07-18T15:08:54.523Z,10.18
2023-07-18T15:13:58.268Z,8.95
2023-07-18T15:19:01.866Z,8.13
2023-07-18T15:24:07.592Z,9.23
2023-07-18T15:29:13.573Z,9.35
2023-07-18T15:34:17.519Z,9.18
2023-07-18T15:39:22.530Z,10.52
2023-07-18T15:44:26.144Z,10.32
2023-07-18T15:49:29.735Z,10.52
2023-07-18T15:54:34.855Z,11.18
2023-07-18T15:59:38.804Z,11.63
2023-07-18T16:04:42.420Z,11.73
2023-07-18T16:09:56.838Z,12.20
2023-07-18T16:15:02.180Z,13.48
2023-07-18T16:20:09.355Z,15.68
2023-07-18T16:25:14.464Z,15.07
2023-07-18T16:30:19.313Z,15.65
2023-07-18T16:35:22.924Z,15.52
2023-07-18T16:40:28.102Z,14.80
2023-07-18T16:45:33.325Z,14.13
2023-07-18T16:50:37.188Z,14.88
2023-07-18T16:55:43.318Z,14.98
2023-07-18T17:00:47.526Z,10.98
2023-07-18T17:10:56.109Z,9.35
2023-07-18T17:16:01.232Z,10.82
2023-07-18T17:21:06.351Z,9.32
2023-07-18T17:26:11.598Z,9.07
2023-07-18T17:31:15.205Z,7.65
2023-07-18T17:36:20.512Z,7.78
2023-07-18T17:41:25.686Z,8.60
2023-07-18T17:46:32.532Z,9.55
2023-07-18T17:51:36.197Z,9.40
2023-07-18T17:56:41.660Z,8.63
2023-07-18T18:01:45.543Z,8.50
2023-07-18T18:06:50.091Z,9.77
2023-07-18T18:11:57.393Z,9.00
2023-07-18T18:17:01.108Z,9.77
2023-07-18T18:22:05.143Z,8.90
2023-07-18T18:27:10.357Z,9.68
2023-07-18T18:32:14.066Z,10.70
2023-07-18T18:37:17.790Z,10.32
2023-07-18T18:42:22.858Z,10.80
2023-07-18T18:47:27.529Z,11.68
2023-07-18T18:52:31.086Z,11.02
2023-07-18T18:57:38.709Z,14.77
2023-07-18T19:02:43.867Z,22.25
2023-07-18T19:07:47.985Z,14.65
2023-07-18T19:12:52.973Z,12.23
2023-07-18T19:17:56.597Z,12.20
2023-07-18T19:23:00.257Z,11.90
2023-07-18T19:28:06.457Z,12.27
2023-07-18T19:33:10.822Z,11.20
2023-07-18T19:38:15.378Z,11.25
2023-07-18T19:43:20.421Z,10.30
2023-07-18T19:48:23.961Z,9.57
2023-07-18T19:53:27.853Z,9.27
2023-07-18T19:58:35.660Z,9.65
2023-07-18T20:03:56.709Z,9.40
2023-07-18T20:09:02.637Z,9.48
2023-07-18T20:14:07.638Z,9.65
2023-07-18T20:19:11.903Z,9.02
2023-07-18T20:29:21.765Z,9.82
2023-07-18T20:34:25.411Z,8.35
2023-07-18T20:39:29.274Z,6.68
2023-07-18T20:44:34.650Z,4.05
2023-07-18T20:49:39.367Z,3.58
2023-07-18T20:54:42.882Z,2.58
2023-07-18T20:59:49.063Z,2.23
2023-07-18T21:04:52.644Z,2.20
2023-07-18T21:09:57.678Z,1.80
2023-07-18T21:15:02.618Z,1.77
2023-07-18T21:20:09.889Z,1.90
2023-07-18T21:25:13.431Z,2.05
2023-07-18T21:30:18.601Z,2.10
2023-07-18T21:35:25.206Z,1.83
2023-07-18T21:40:29.089Z,2.15
2023-07-18T21:45:34.209Z,1.92
2023-07-18T21:50:37.814Z,1.85
2023-07-18T21:55:43.375Z,1.70
2023-07-18T22:00:48.402Z,1.85
2023-07-18T22:05:52.034Z,2.15
2023-07-18T22:10:55.515Z,2.17
2023-07-18T22:16:01.439Z,1.80
2023-07-18T22:21:05.370Z,2.25
2023-07-18T22:26:14.329Z,1.80
2023-07-18T22:31:20.167Z,2.03
2023-07-18T22:36:24.020Z,1.42
2023-07-18T22:41:29.095Z,1.48
2023-07-18T22:46:34.199Z,1.17
2023-07-18T22:51:37.810Z,1.02
2023-07-18T22:56:41.302Z,1.00
2023-07-18T23:01:46.238Z,0.73
2023-07-18T23:06:49.899Z,1.00
2023-07-18T23:11:55.559Z,0.90
2023-07-18T23:17:00.818Z,1.02
2023-07-18T23:22:04.453Z,0.75
2023-07-18T23:27:08.378Z,0.80
2023-07-18T23:32:13.971Z,0.90
2023-07-18T23:37:17.640Z,0.90
2023-07-18T23:42:21.217Z,1.00
2023-07-18T23:47:26.168Z,0.97
2023-07-18T23:52:29.959Z,1.00
2023-07-18T23:57:37.594Z,0.80
